Time;durP1;ratioP1;P1;durP2;ratioP2;P2;SDS_P1;SDS_P2;PMS_P1;PMS_P2;Temp;Humidity;BMP_temperature;BMP_pressure;BME280_temperature;BME280_humidity;BME280_pressure;Samples;Min_cycle;Max_cycle;Signal;HPM_P1;HPM_P2
2023/04/26 00:02:19;;;;;;;;;16.25;12.75;;;;;;;;5049778;28;12278;-79
2023/04/26 00:04:54;;;;;;;;;14.50;11.00;;;;;;;;5050356;28;11035;-80
2023/04/26 00:07:23;;;;;;;;;11.00;9.00;;;;;;;;5055822;28;11538;-80
2023/04/26 00:09:51;;;;;;;;;10.25;10.25;;;;;;;;5050961;28;11644;-81
2023/04/26 00:12:18;;;;;;;;;14.25;14.25;;;;;;;;5055268;28;11550;-80
2023/04/26 00:14:45;;;;;;;;;7.25;4.75;;;;;;;;5055060;28;12326;-81
2023/04/26 00:17:12;;;;;;;;;9.25;9.25;;;;;;;;5044078;28;11592;-81
2023/04/26 00:19:40;;;;;;;;;8.25;8.25;;;;;;;;5043813;28;10999;-80
2023/04/26 00:22:08;;;;;;;;;10.00;7.75;;;;;;;;5044283;28;11098;-80
2023/04/26 00:24:36;;;;;;;;;8.25;8.25;;;;;;;;5051912;28;11688;-81
2023/04/26 00:27:07;;;;;;;;;13.50;10.75;;;;;;;;5054430;28;11563;-81
2023/04/26 00:29:35;;;;;;;;;14.00;11.00;;;;;;;;5051790;28;11649;-80
2023/04/26 00:32:02;;;;;;;;;10.25;10.25;;;;;;;;5056029;28;11541;-80
2023/04/26 00:34:33;;;;;;;;;14.00;10.50;;;;;;;;5052033;28;11536;-81
2023/04/26 00:37:00;;;;;;;;;16.00;13.75;;;;;;;;5051955;28;11548;-81
2023/04/26 00:39:29;;;;;;;;;20.50;16.50;;;;;;;;5045633;28;11552;-80
2023/04/26 00:41:56;;;;;;;;;15.50;15.50;;;;;;;;5050306;28;11559;-81
2023/04/26 00:44:23;;;;;;;;;14.00;14.00;;;;;;;;5051655;28;12410;-81
2023/04/26 00:46:53;;;;;;;;;19.25;16.25;;;;;;;;5058297;28;11575;-81
2023/04/26 00:49:22;;;;;;;;;20.75;15.25;;;;;;;;5044011;28;11592;-80
2023/04/26 00:51:50;;;;;;;;;17.75;17.75;;;;;;;;5051239;28;11680;-81
2023/04/26 00:54:17;;;;;;;;;17.25;15.00;;;;;;;;5050921;28;11558;-80
2023/04/26 00:56:46;;;;;;;;;16.25;14.00;;;;;;;;5051965;28;11551;-81
2023/04/26 00:59:13;;;;;;;;;13.75;11.50;;;;;;;;5049875;28;11658;-80
2023/04/26 01:01:41;;;;;;;;;13.00;13.00;;;;;;;;5050245;28;11518;-81
2023/04/26 01:04:08;;;;;;;;;12.50;12.50;;;;;;;;5052194;28;11568;-80
2023/04/26 01:06:37;;;;;;;;;10.25;10.25;;;;;;;;5041171;28;11650;-81
2023/04/26 01:09:08;;;;;;;;;14.50;14.50;;;;;;;;5046151;28;11531;-79
2023/04/26 01:11:37;;;;;;;;;10.00;10.00;;;;;;;;5049912;28;11634;-81
2023/04/26 01:14:07;;;;;;;;;15.75;13.50;;;;;;;;5051680;28;11540;-80
2023/04/26 01:16:34;;;;;;;;;13.25;11.50;;;;;;;;5052013;28;11634;-80
2023/04/26 01:19:09;;;;;;;;;7.50;7.50;;;;;;;;5052072;28;11717;-80
2023/04/26 01:21:37;;;;;;;;;10.00;10.00;;;;;;;;5051979;28;11534;-81
2023/04/26 01:24:07;;;;;;;;;9.75;9.75;;;;;;;;5052615;28;11660;-79
2023/04/26 01:26:34;;;;;;;;;9.75;7.00;;;;;;;;5051557;28;11656;-80
2023/04/26 01:29:01;;;;;;;;;12.50;10.00;;;;;;;;5051165;28;11528;-80
2023/04/26 01:31:29;;;;;;;;;13.75;12.50;;;;;;;;5050411;28;11615;-81
2023/04/26 01:33:56;;;;;;;;;14.50;11.00;;;;;;;;5062419;28;11654;-81
2023/04/26 01:36:23;;;;;;;;;16.75;14.25;;;;;;;;5049806;28;11564;-81
2023/04/26 01:38:50;;;;;;;;;10.00;10.00;;;;;;;;5050756;28;11560;-79
2023/04/26 01:41:19;;;;;;;;;15.75;11.75;;;;;;;;5050744;28;11676;-80
2023/04/26 01:43:46;;;;;;;;;10.25;6.75;;;;;;;;5052076;28;11712;-80
2023/04/26 01:46:13;;;;;;;;;9.75;9.75;;;;;;;;5051551;28;11527;-79
2023/04/26 01:48:40;;;;;;;;;13.00;12.00;;;;;;;;5051933;28;11567;-79
2023/04/26 01:51:08;;;;;;;;;10.50;10.50;;;;;;;;5052031;28;11695;-80
2023/04/26 01:53:35;;;;;;;;;10.25;9.25;;;;;;;;5051480;28;11559;-79
2023/04/26 01:56:05;;;;;;;;;14.75;11.75;;;;;;;;5057838;28;11623;-80
2023/04/26 01:58:34;;;;;;;;;11.25;10.50;;;;;;;;5041221;28;11548;-81
2023/04/26 02:01:07;;;;;;;;;8.00;8.00;;;;;;;;5056569;28;10953;-80
2023/04/26 02:03:34;;;;;;;;;7.00;6.00;;;;;;;;5052894;28;11655;-80
2023/04/26 02:06:01;;;;;;;;;10.75;7.50;;;;;;;;5064514;28;11521;-81
2023/04/26 02:08:29;;;;;;;;;7.00;7.00;;;;;;;;5050116;28;11559;-81
2023/04/26 02:10:56;;;;;;;;;9.25;9.00;;;;;;;;5049705;28;11554;-81
2023/04/26 02:13:23;;;;;;;;;10.00;10.00;;;;;;;;5050002;28;11674;-81
2023/04/26 02:15:55;;;;;;;;;10.25;9.25;;;;;;;;5050024;28;11687;-81
2023/04/26 02:18:22;;;;;;;;;7.50;7.50;;;;;;;;5050668;28;11563;-81
2023/04/26 02:20:49;;;;;;;;;8.00;8.00;;;;;;;;5050935;28;11504;-81
2023/04/26 02:23:17;;;;;;;;;7.25;7.25;;;;;;;;5050676;28;11551;-81
2023/04/26 02:25:46;;;;;;;;;11.00;9.00;;;;;;;;5050986;28;11543;-80
2023/04/26 02:28:13;;;;;;;;;4.50;2.50;;;;;;;;5050205;28;11543;-81
2023/04/26 02:30:40;;;;;;;;;13.00;7.00;;;;;;;;5049981;28;11608;-80
2023/04/26 02:33:09;;;;;;;;;10.25;9.75;;;;;;;;5050306;28;11544;-81
2023/04/26 02:35:37;;;;;;;;;9.00;9.00;;;;;;;;5050731;28;11568;-80
2023/04/26 02:38:06;;;;;;;;;11.00;10.00;;;;;;;;5051066;28;11643;-80
2023/04/26 02:40:36;;;;;;;;;11.50;8.25;;;;;;;;5051899;28;11683;-80
2023/04/26 02:43:03;;;;;;;;;9.25;6.00;;;;;;;;5050818;28;11577;-79
2023/04/26 02:45:30;;;;;;;;;6.25;6.25;;;;;;;;5049408;28;11535;-79
2023/04/26 02:47:58;;;;;;;;;9.50;8.50;;;;;;;;5048727;28;11537;-81
2023/04/26 02:50:26;;;;;;;;;10.50;7.00;;;;;;;;5051307;28;11558;-80
2023/04/26 02:52:53;;;;;;;;;9.50;6.25;;;;;;;;5068476;28;10998;-79
2023/04/26 02:55:21;;;;;;;;;9.25;9.25;;;;;;;;5067007;28;11948;-80
2023/04/26 02:57:48;;;;;;;;;10.00;9.00;;;;;;;;5060736;28;11662;-80
2023/04/26 03:00:15;;;;;;;;;7.00;7.00;;;;;;;;5066662;28;11525;-81
2023/04/26 03:02:43;;;;;;;;;5.50;5.50;;;;;;;;5068453;28;11514;-80
2023/04/26 03:05:10;;;;;;;;;14.00;7.50;;;;;;;;5049171;28;11639;-80
2023/04/26 03:07:38;;;;;;;;;5.75;5.75;;;;;;;;5048758;28;11550;-79
2023/04/26 03:10:07;;;;;;;;;9.50;7.00;;;;;;;;5061022;28;11546;-79
2023/04/26 03:12:34;;;;;;;;;6.25;6.25;;;;;;;;5065176;28;11530;-81
2023/04/26 03:15:02;;;;;;;;;9.00;7.00;;;;;;;;5048708;28;12445;-79
2023/04/26 03:17:30;;;;;;;;;5.25;5.25;;;;;;;;5051178;28;11510;-81
2023/04/26 03:19:57;;;;;;;;;6.00;6.00;;;;;;;;5060214;28;11634;-81
2023/04/26 03:22:24;;;;;;;;;8.00;8.00;;;;;;;;5048346;28;11530;-80
2023/04/26 03:24:53;;;;;;;;;6.50;6.50;;;;;;;;5048666;28;11531;-80
2023/04/26 03:27:20;;;;;;;;;6.25;5.25;;;;;;;;5047874;28;11547;-79
2023/04/26 03:29:47;;;;;;;;;12.25;6.25;;;;;;;;5048535;28;11661;-80
2023/04/26 03:32:15;;;;;;;;;10.00;8.00;;;;;;;;5047727;28;11487;-80
2023/04/26 03:34:42;;;;;;;;;5.25;5.25;;;;;;;;5048890;28;11666;-80
2023/04/26 03:37:09;;;;;;;;;11.00;11.00;;;;;;;;5048631;28;11611;-80
2023/04/26 03:39:36;;;;;;;;;12.50;7.00;;;;;;;;5048869;28;11529;-79
2023/04/26 03:42:05;;;;;;;;;12.50;12.50;;;;;;;;5049241;28;11585;-80
2023/04/26 03:44:32;;;;;;;;;11.25;11.25;;;;;;;;5059248;28;11669;-80
2023/04/26 03:47:00;;;;;;;;;13.00;13.00;;;;;;;;5062526;28;11579;-80
2023/04/26 03:49:29;;;;;;;;;15.00;15.00;;;;;;;;5049216;28;11190;-80
2023/04/26 03:51:56;;;;;;;;;19.50;15.25;;;;;;;;5055411;28;11584;-80
2023/04/26 03:54:23;;;;;;;;;16.75;15.25;;;;;;;;5057655;28;11706;-80
2023/04/26 03:56:50;;;;;;;;;19.00;16.00;;;;;;;;5058204;28;11582;-80
2023/04/26 03:59:19;;;;;;;;;14.50;14.50;;;;;;;;5040137;28;11596;-81
2023/04/26 04:01:47;;;;;;;;;22.50;16.25;;;;;;;;5049810;28;11488;-81
2023/04/26 04:04:14;;;;;;;;;19.75;18.00;;;;;;;;5054164;28;11606;-81
2023/04/26 04:06:42;;;;;;;;;23.25;23.25;;;;;;;;5050363;28;11083;-81
2023/04/26 04:09:09;;;;;;;;;13.75;13.75;;;;;;;;5063731;28;11589;-81
2023/04/26 04:11:36;;;;;;;;;15.75;15.75;;;;;;;;5063424;28;11558;-80
2023/04/26 04:14:04;;;;;;;;;18.00;16.25;;;;;;;;5063443;28;11559;-81
2023/04/26 04:16:33;;;;;;;;;16.00;15.00;;;;;;;;5057022;28;11568;-81
2023/04/26 04:19:04;;;;;;;;;16.00;16.00;;;;;;;;5048840;28;12473;-80
2023/04/26 04:21:31;;;;;;;;;18.25;15.75;;;;;;;;5047548;28;11574;-80
2023/04/26 04:23:59;;;;;;;;;15.75;14.25;;;;;;;;5049335;28;11556;-81
2023/04/26 04:26:26;;;;;;;;;17.00;13.75;;;;;;;;5050361;28;11712;-80
2023/04/26 04:28:54;;;;;;;;;16.50;16.00;;;;;;;;5049685;28;11604;-80
2023/04/26 04:31:21;;;;;;;;;18.50;16.50;;;;;;;;5046398;28;11530;-81
2023/04/26 04:33:50;;;;;;;;;15.00;15.00;;;;;;;;5046882;28;11588;-80
2023/04/26 04:36:17;;;;;;;;;11.50;11.25;;;;;;;;5046764;28;11705;-79
2023/04/26 04:38:44;;;;;;;;;14.50;14.50;;;;;;;;5044375;28;11623;-80
2023/04/26 04:41:11;;;;;;;;;9.00;9.00;;;;;;;;5044644;28;11696;-79
2023/04/26 04:43:39;;;;;;;;;16.50;11.75;;;;;;;;5050051;28;11652;-80
2023/04/26 04:46:09;;;;;;;;;16.50;14.25;;;;;;;;5049895;28;11696;-79
2023/04/26 04:48:37;;;;;;;;;17.50;11.00;;;;;;;;5052495;28;11580;-80
2023/04/26 04:51:06;;;;;;;;;14.50;14.50;;;;;;;;5048048;28;11593;-80
2023/04/26 04:53:34;;;;;;;;;11.75;10.00;;;;;;;;5043804;28;11718;-81
2023/04/26 04:56:01;;;;;;;;;19.50;15.50;;;;;;;;5043872;28;11054;-81
2023/04/26 04:58:28;;;;;;;;;12.75;12.75;;;;;;;;5051077;28;11601;-80
2023/04/26 05:00:56;;;;;;;;;18.25;14.25;;;;;;;;5050948;28;11622;-80
2023/04/26 05:03:24;;;;;;;;;16.00;15.25;;;;;;;;5049880;28;11732;-81
2023/04/26 05:05:51;;;;;;;;;13.50;13.50;;;;;;;;5049390;28;11581;-81
2023/04/26 05:08:20;;;;;;;;;20.50;14.25;;;;;;;;5050019;28;11584;-80
2023/04/26 05:10:50;;;;;;;;;12.50;12.00;;;;;;;;5054825;28;11574;-80
2023/04/26 05:13:17;;;;;;;;;15.50;12.75;;;;;;;;5045172;28;11632;-81
2023/04/26 05:15:44;;;;;;;;;16.50;13.50;;;;;;;;5055566;28;12420;-80
2023/04/26 05:18:14;;;;;;;;;17.00;16.50;;;;;;;;5050939;28;11554;-82
2023/04/26 05:20:41;;;;;;;;;10.50;9.50;;;;;;;;5051630;28;11551;-82
2023/04/26 05:23:08;;;;;;;;;13.50;10.00;;;;;;;;5050935;28;11591;-83
2023/04/26 05:25:38;;;;;;;;;9.25;9.25;;;;;;;;5051339;28;11575;-80
2023/04/26 05:28:11;;;;;;;;;17.75;10.00;;;;;;;;5050907;28;11609;-82
2023/04/26 05:30:38;;;;;;;;;6.25;6.25;;;;;;;;5050812;28;11490;-77
2023/04/26 05:33:05;;;;;;;;;17.25;12.50;;;;;;;;5051956;28;12306;-85
2023/04/26 05:35:32;;;;;;;;;9.25;9.25;;;;;;;;5059481;28;11574;-82
2023/04/26 05:38:00;;;;;;;;;15.00;11.00;;;;;;;;5052766;28;11511;-88
2023/04/26 05:40:27;;;;;;;;;14.00;11.00;;;;;;;;5055554;28;11567;-79
2023/04/26 05:42:56;;;;;;;;;14.25;10.75;;;;;;;;5060047;28;11634;-84
2023/04/26 05:45:23;;;;;;;;;10.25;10.25;;;;;;;;5061464;28;11585;-79
2023/04/26 05:47:50;;;;;;;;;15.25;10.00;;;;;;;;5054203;28;11668;-78
2023/04/26 05:50:18;;;;;;;;;11.25;9.25;;;;;;;;5061192;28;12360;-80
2023/04/26 05:52:45;;;;;;;;;10.75;10.50;;;;;;;;5056856;28;11521;-77
2023/04/26 05:55:12;;;;;;;;;8.25;8.25;;;;;;;;5049703;28;11574;-77
2023/04/26 05:57:40;;;;;;;;;11.00;9.00;;;;;;;;5055319;28;12313;-84
2023/04/26 06:00:10;;;;;;;;;10.75;10.75;;;;;;;;5056573;28;11551;-85
2023/04/26 06:02:38;;;;;;;;;7.50;7.50;;;;;;;;5056627;28;11550;-74
2023/04/26 06:05:07;;;;;;;;;6.00;6.00;;;;;;;;5050540;28;11521;-77
2023/04/26 06:07:34;;;;;;;;;10.25;10.25;;;;;;;;5062245;28;11499;-75
2023/04/26 06:10:02;;;;;;;;;10.25;10.25;;;;;;;;5056288;28;11543;-80
2023/04/26 06:12:30;;;;;;;;;11.25;10.25;;;;;;;;5061463;28;11541;-81
2023/04/26 06:14:57;;;;;;;;;12.75;10.75;;;;;;;;5056966;28;11579;-73
2023/04/26 06:17:26;;;;;;;;;9.00;9.00;;;;;;;;5053873;28;11562;-73
2023/04/26 06:19:53;;;;;;;;;11.25;9.25;;;;;;;;5048671;28;12334;-71
2023/04/26 06:22:20;;;;;;;;;15.75;10.25;;;;;;;;5047993;28;11550;-73
2023/04/26 06:24:47;;;;;;;;;11.75;10.25;;;;;;;;5048819;28;12445;-75
2023/04/26 06:27:14;;;;;;;;;7.75;7.75;;;;;;;;5050584;28;12325;-72
2023/04/26 06:29:42;;;;;;;;;14.00;9.50;;;;;;;;5049742;28;11548;-78
2023/04/26 06:32:10;;;;;;;;;17.00;12.75;;;;;;;;5048951;28;11475;-73
2023/04/26 06:34:39;;;;;;;;;13.25;12.25;;;;;;;;5049046;28;12489;-74
2023/04/26 06:37:07;;;;;;;;;10.00;7.75;;;;;;;;5045292;28;12346;-74
2023/04/26 06:39:34;;;;;;;;;10.00;10.00;;;;;;;;5041715;28;11707;-76
2023/04/26 06:42:01;;;;;;;;;14.75;11.75;;;;;;;;5051055;28;11574;-76
2023/04/26 06:44:29;;;;;;;;;8.00;8.00;;;;;;;;5050030;28;11600;-79
2023/04/26 06:46:56;;;;;;;;;11.75;9.25;;;;;;;;5050584;28;11499;-73
2023/04/26 06:49:24;;;;;;;;;6.75;6.75;;;;;;;;5048212;28;11625;-78
2023/04/26 06:51:52;;;;;;;;;10.25;9.75;;;;;;;;5049686;28;11536;-78
2023/04/26 06:54:20;;;;;;;;;10.25;10.25;;;;;;;;5049886;28;11551;-75
2023/04/26 06:56:47;;;;;;;;;8.50;8.50;;;;;;;;5050579;28;11663;-74
2023/04/26 06:59:14;;;;;;;;;6.75;6.75;;;;;;;;5048770;28;11595;-73
2023/04/26 07:01:41;;;;;;;;;13.00;9.00;;;;;;;;5037718;28;11565;-77
2023/04/26 07:04:09;;;;;;;;;8.50;8.50;;;;;;;;5049121;28;11881;-75
2023/04/26 07:06:38;;;;;;;;;8.00;8.00;;;;;;;;5039730;28;11677;-75
2023/04/26 07:09:07;;;;;;;;;10.50;10.50;;;;;;;;5050900;28;11671;-76
2023/04/26 07:11:34;;;;;;;;;10.25;10.25;;;;;;;;5049347;28;11583;-77
2023/04/26 07:14:02;;;;;;;;;13.00;13.00;;;;;;;;5050259;28;11546;-73
2023/04/26 07:16:29;;;;;;;;;9.00;9.00;;;;;;;;5050070;28;11666;-79
2023/04/26 07:18:57;;;;;;;;;10.50;8.75;;;;;;;;5047796;28;11480;-80
2023/04/26 07:21:25;;;;;;;;;9.50;8.00;;;;;;;;5048975;28;11649;-81
2023/04/26 07:23:54;;;;;;;;;9.75;8.50;;;;;;;;5048678;28;11456;-81
2023/04/26 07:26:23;;;;;;;;;12.50;10.00;;;;;;;;5049554;28;11497;-77
2023/04/26 07:28:51;;;;;;;;;11.50;11.50;;;;;;;;5059454;28;11563;-78
2023/04/26 07:31:19;;;;;;;;;4.50;4.50;;;;;;;;5064603;28;11380;-83
2023/04/26 07:33:46;;;;;;;;;6.75;6.50;;;;;;;;5057512;28;11590;-76
2023/04/26 07:36:13;;;;;;;;;8.50;8.00;;;;;;;;5054072;28;11849;-73
2023/04/26 07:38:40;;;;;;;;;5.00;5.00;;;;;;;;5054713;28;11419;-76
2023/04/26 07:41:07;;;;;;;;;10.75;9.00;;;;;;;;5056032;28;11481;-77
2023/04/26 07:43:36;;;;;;;;;7.25;7.25;;;;;;;;5061656;28;11475;-73
2023/04/26 07:46:04;;;;;;;;;7.00;7.00;;;;;;;;5057973;28;12268;-76
2023/04/26 07:48:32;;;;;;;;;10.00;9.75;;;;;;;;5048208;28;11474;-77
2023/04/26 07:51:07;;;;;;;;;7.25;7.25;;;;;;;;5050800;28;11536;-77
2023/04/26 07:53:35;;;;;;;;;10.50;10.50;;;;;;;;5052768;28;11206;-75
2023/04/26 07:56:06;;;;;;;;;9.25;9.00;;;;;;;;5050791;28;11206;-75
2023/04/26 07:58:35;;;;;;;;;7.50;5.00;;;;;;;;5050482;28;11171;-74
2023/04/26 08:01:03;;;;;;;;;8.50;8.00;;;;;;;;5043205;28;11401;-73
2023/04/26 08:03:31;;;;;;;;;6.25;5.50;;;;;;;;5050421;28;11188;-75
2023/04/26 08:06:00;;;;;;;;;7.25;6.50;;;;;;;;5059050;28;11056;-74
2023/04/26 08:08:27;;;;;;;;;11.00;11.00;;;;;;;;5064897;28;11080;-76
2023/04/26 08:10:55;;;;;;;;;12.00;12.00;;;;;;;;5065027;28;11121;-77
2023/04/26 08:13:22;;;;;;;;;8.50;8.50;;;;;;;;5066349;28;11097;-77
2023/04/26 08:15:50;;;;;;;;;7.50;5.00;;;;;;;;5064509;28;10846;-76
2023/04/26 08:18:18;;;;;;;;;17.00;10.75;;;;;;;;5047494;28;11496;-76
2023/04/26 08:20:47;;;;;;;;;5.00;5.00;;;;;;;;5048386;28;11409;-88
2023/04/26 08:23:14;;;;;;;;;9.00;7.50;;;;;;;;5048695;28;10621;-85
2023/04/26 08:25:42;;;;;;;;;6.00;6.00;;;;;;;;5048257;28;10465;-81
2023/04/26 08:28:13;;;;;;;;;10.00;8.75;;;;;;;;5047403;28;10561;-75
2023/04/26 08:30:40;;;;;;;;;6.75;5.00;;;;;;;;5047018;28;10278;-79
2023/04/26 08:33:09;;;;;;;;;8.00;8.00;;;;;;;;5057647;28;10363;-75
2023/04/26 08:35:37;;;;;;;;;6.00;6.00;;;;;;;;5065859;28;11098;-77
2023/04/26 08:38:04;;;;;;;;;6.75;6.50;;;;;;;;5066388;28;10157;-75
2023/04/26 08:40:31;;;;;;;;;5.50;4.50;;;;;;;;5066273;28;10086;-77
2023/04/26 08:42:59;;;;;;;;;6.75;5.25;;;;;;;;5066869;28;10083;-79
2023/04/26 08:45:26;;;;;;;;;8.50;5.50;;;;;;;;5068911;28;9795;-77
2023/04/26 08:47:55;;;;;;;;;6.00;6.00;;;;;;;;5070127;28;9871;-75
2023/04/26 08:50:24;;;;;;;;;10.00;6.00;;;;;;;;5056997;28;9731;-83
2023/04/26 08:52:52;;;;;;;;;9.25;7.00;;;;;;;;5070877;28;9809;-84
2023/04/26 08:55:20;;;;;;;;;5.00;5.00;;;;;;;;5065191;28;9820;-75
2023/04/26 08:57:48;;;;;;;;;5.00;5.00;;;;;;;;5051425;28;9420;-76
2023/04/26 09:00:17;;;;;;;;;5.00;5.00;;;;;;;;5037610;28;9396;-75
2023/04/26 09:02:48;;;;;;;;;5.00;5.00;;;;;;;;5050691;28;9405;-76
2023/04/26 09:05:15;;;;;;;;;11.00;6.33;;;;;;;;5063656;28;9164;-76
2023/04/26 09:07:45;;;;;;;;;5.67;5.67;;;;;;;;5066676;28;9231;-76
2023/04/26 09:10:14;;;;;;;;;6.67;6.67;;;;;;;;5061934;28;9026;-86
2023/04/26 09:12:41;;;;;;;;;6.50;5.25;;;;;;;;5051861;28;9018;-87
2023/04/26 09:15:10;;;;;;;;;6.25;6.25;;;;;;;;5051553;28;8979;-77
2023/04/26 09:17:40;;;;;;;;;6.00;6.00;;;;;;;;5051606;28;8870;-78
2023/04/26 09:20:22;;;;;;;;;5.00;5.00;;;;;;;;5060839;28;8864;-80
2023/04/26 09:22:51;;;;;;;;;6.00;6.00;;;;;;;;5051199;28;8877;-76
2023/04/26 09:25:19;;;;;;;;;5.75;5.75;;;;;;;;5051624;28;8919;-76
2023/04/26 09:27:47;;;;;;;;;5.67;5.67;;;;;;;;5045575;28;8954;-81
2023/04/26 09:30:16;;;;;;;;;6.00;6.00;;;;;;;;5054634;28;8980;-76
2023/04/26 09:32:49;;;;;;;;;4.00;4.00;;;;;;;;5051129;28;9148;-73
2023/04/26 09:35:28;;;;;;;;;5.67;5.00;;;;;;;;5053939;28;9215;-76
2023/04/26 09:37:59;;;;;;;;;6.00;6.00;;;;;;;;5041174;28;9132;-76
2023/04/26 09:40:28;;;;;;;;;8.00;8.00;;;;;;;;5059686;28;8975;-74
2023/04/26 09:43:00;;;;;;;;;8.50;6.00;;;;;;;;5065862;28;9034;-75
2023/04/26 09:45:29;;;;;;;;;5.50;4.50;;;;;;;;5061736;28;8849;-77
2023/04/26 09:47:56;;;;;;;;;4.25;4.25;;;;;;;;5065797;28;8855;-78
2023/04/26 09:50:30;;;;;;;;;7.00;7.00;;;;;;;;5061675;28;8854;-76
2023/04/26 09:53:01;;;;;;;;;6.00;5.00;;;;;;;;5064585;28;8854;-75
2023/04/26 09:55:30;;;;;;;;;6.25;4.75;;;;;;;;5062813;28;8851;-73
2023/04/26 09:57:59;;;;;;;;;6.75;5.00;;;;;;;;5055805;28;8876;-74
2023/04/26 10:00:27;;;;;;;;;5.50;5.25;;;;;;;;5064612;28;8831;-76
2023/04/26 10:02:55;;;;;;;;;4.75;4.75;;;;;;;;5062568;28;9068;-75
2023/04/26 10:05:23;;;;;;;;;4.25;4.25;;;;;;;;5049182;28;8850;-79
2023/04/26 10:07:51;;;;;;;;;3.25;3.25;;;;;;;;5049228;28;8862;-76
2023/04/26 10:10:21;;;;;;;;;6.00;6.00;;;;;;;;5052840;28;8983;-77
2023/04/26 10:12:49;;;;;;;;;5.50;4.75;;;;;;;;5058891;28;8857;-78
2023/04/26 10:15:16;;;;;;;;;4.25;4.25;;;;;;;;5056800;28;8971;-74
2023/04/26 10:17:43;;;;;;;;;3.75;2.75;;;;;;;;5051945;28;9003;-75
2023/04/26 10:20:13;;;;;;;;;4.75;4.75;;;;;;;;5049669;28;8853;-74
2023/04/26 10:22:45;;;;;;;;;4.25;4.25;;;;;;;;5037916;28;9647;-75
2023/04/26 10:25:14;;;;;;;;;7.00;5.50;;;;;;;;5050212;28;8885;-75
2023/04/26 10:27:52;;;;;;;;;5.00;5.00;;;;;;;;5049331;28;8861;-74
2023/04/26 10:30:23;;;;;;;;;4.00;4.00;;;;;;;;5049129;28;8888;-75
2023/04/26 10:33:14;;;;;;;;;3.75;3.00;;;;;;;;5048995;28;8845;-76
2023/04/26 10:36:10;;;;;;;;;3.75;3.75;;;;;;;;5049277;28;8857;-74
2023/04/26 10:38:39;;;;;;;;;4.00;4.00;;;;;;;;5049077;28;8833;-75
2023/04/26 10:41:31;;;;;;;;;3.00;3.00;;;;;;;;5048297;28;8869;-76
2023/04/26 10:44:01;;;;;;;;;3.75;3.75;;;;;;;;5048356;28;8878;-75
2023/04/26 10:46:36;;;;;;;;;4.75;4.75;;;;;;;;5048609;28;8861;-76
2023/04/26 10:49:16;;;;;;;;;8.00;5.25;;;;;;;;5048657;28;8841;-77
2023/04/26 10:52:20;;;;;;;;;5.00;5.00;;;;;;;;5048746;28;8855;-77
2023/04/26 10:54:57;;;;;;;;;2.50;2.50;;;;;;;;4987461;28;8865;-77
2023/04/26 10:57:48;;;;;;;;;6.00;6.00;;;;;;;;4987210;28;8861;-77
2023/04/26 11:00:22;;;;;;;;;4.25;4.25;;;;;;;;5023847;28;8850;-77
2023/04/26 11:02:58;;;;;;;;;8.25;5.00;;;;;;;;5062183;28;8867;-76
2023/04/26 11:05:41;;;;;;;;;7.25;5.50;;;;;;;;5057419;28;8847;-77
2023/04/26 11:08:16;;;;;;;;;4.25;4.25;;;;;;;;5058011;28;8849;-79
2023/04/26 11:10:45;;;;;;;;;5.00;5.00;;;;;;;;5050558;28;8884;-82
2023/04/26 11:13:13;;;;;;;;;4.25;4.25;;;;;;;;5049871;28;9430;-79
2023/04/26 11:15:41;;;;;;;;;4.50;4.50;;;;;;;;5061462;28;8867;-78
2023/04/26 11:18:08;;;;;;;;;3.25;3.25;;;;;;;;5048391;28;8861;-77
2023/04/26 11:20:35;;;;;;;;;6.00;6.00;;;;;;;;5047690;28;8847;-79
2023/04/26 11:23:03;;;;;;;;;4.00;4.00;;;;;;;;5048172;28;8880;-77
2023/04/26 11:25:30;;;;;;;;;3.25;3.25;;;;;;;;5057861;28;8917;-77
2023/04/26 11:28:01;;;;;;;;;4.00;4.00;;;;;;;;5054430;28;8877;-78
2023/04/26 11:30:30;;;;;;;;;3.00;3.00;;;;;;;;5046088;28;8789;-76
2023/04/26 11:32:59;;;;;;;;;6.50;4.25;;;;;;;;5038857;28;8875;-75
2023/04/26 11:35:28;;;;;;;;;4.00;4.00;;;;;;;;5043486;28;8958;-80
2023/04/26 11:37:59;;;;;;;;;5.00;5.00;;;;;;;;5051623;28;8927;-76
2023/04/26 11:40:29;;;;;;;;;7.00;5.00;;;;;;;;5054653;28;8861;-76
2023/04/26 11:43:01;;;;;;;;;5.50;4.00;;;;;;;;5050407;28;8855;-76
2023/04/26 11:45:28;;;;;;;;;3.75;3.75;;;;;;;;5054484;28;8872;-78
2023/04/26 11:47:56;;;;;;;;;6.25;4.25;;;;;;;;5049151;28;8862;-75
2023/04/26 11:50:25;;;;;;;;;3.50;3.50;;;;;;;;5054257;28;8862;-76
2023/04/26 11:52:55;;;;;;;;;3.80;3.80;;;;;;;;5057380;28;8846;-78
2023/04/26 11:55:26;;;;;;;;;4.80;4.80;;;;;;;;5053024;28;8935;-75
2023/04/26 11:57:53;;;;;;;;;7.00;5.00;;;;;;;;5052303;28;8842;-74
2023/04/26 12:00:21;;;;;;;;;3.25;3.25;;;;;;;;5046936;28;8912;-77
2023/04/26 12:02:50;;;;;;;;;5.50;5.50;;;;;;;;5047071;28;8849;-75
2023/04/26 12:05:26;;;;;;;;;5.50;5.25;;;;;;;;5046888;28;8845;-77
2023/04/26 12:07:55;;;;;;;;;5.25;5.25;;;;;;;;5043821;28;8887;-74
2023/04/26 12:10:26;;;;;;;;;4.50;4.50;;;;;;;;5048873;28;8856;-76
2023/04/26 12:12:55;;;;;;;;;4.00;4.00;;;;;;;;5047229;28;8946;-75
2023/04/26 12:15:29;;;;;;;;;6.00;4.00;;;;;;;;5048612;28;8993;-75
2023/04/26 12:17:58;;;;;;;;;4.75;4.75;;;;;;;;5048647;28;8856;-74
2023/04/26 12:20:32;;;;;;;;;4.25;4.25;;;;;;;;5049573;28;8987;-75
2023/04/26 12:23:04;;;;;;;;;4.00;4.00;;;;;;;;5052323;28;8875;-76
2023/04/26 12:25:32;;;;;;;;;6.00;6.00;;;;;;;;5055167;28;8877;-76
2023/04/26 12:27:59;;;;;;;;;5.40;4.40;;;;;;;;5035413;28;8863;-76
2023/04/26 12:30:27;;;;;;;;;4.60;4.60;;;;;;;;5061510;28;8781;-76
2023/04/26 12:32:55;;;;;;;;;6.50;5.00;;;;;;;;5053533;28;8879;-74
2023/04/26 12:35:26;;;;;;;;;4.25;4.25;;;;;;;;5055071;28;8939;-77
2023/04/26 12:37:55;;;;;;;;;4.50;4.50;;;;;;;;5053224;28;8861;-75
2023/04/26 12:40:23;;;;;;;;;4.50;4.00;;;;;;;;5055137;28;8932;-76
2023/04/26 12:42:51;;;;;;;;;4.75;4.75;;;;;;;;5053003;28;8855;-75
2023/04/26 12:45:19;;;;;;;;;3.75;3.75;;;;;;;;5047842;28;8945;-76
2023/04/26 12:47:46;;;;;;;;;4.00;4.00;;;;;;;;5043579;28;8853;-75
2023/04/26 12:50:14;;;;;;;;;4.50;3.00;;;;;;;;5051246;28;8983;-75
2023/04/26 12:52:43;;;;;;;;;4.40;4.00;;;;;;;;5052297;28;8860;-77
2023/04/26 12:55:12;;;;;;;;;4.20;4.20;;;;;;;;5051466;28;8869;-76
2023/04/26 12:57:40;;;;;;;;;6.80;3.00;;;;;;;;5051623;28;8891;-81
2023/04/26 13:00:21;;;;;;;;;6.40;5.00;;;;;;;;5049230;28;8841;-77
2023/04/26 13:02:56;;;;;;;;;4.20;4.20;;;;;;;;5052592;28;8976;-82
2023/04/26 13:05:24;;;;;;;;;5.20;3.60;;;;;;;;5053053;28;8939;-81
2023/04/26 13:07:51;;;;;;;;;4.75;4.00;;;;;;;;5052547;28;8861;-77
2023/04/26 13:10:20;;;;;;;;;4.25;4.25;;;;;;;;5050869;28;8862;-74
2023/04/26 13:12:47;;;;;;;;;5.75;4.75;;;;;;;;5053373;28;8868;-75
2023/04/26 13:15:14;;;;;;;;;6.00;4.00;;;;;;;;5061205;28;9669;-76
2023/04/26 13:17:43;;;;;;;;;6.00;6.00;;;;;;;;5059123;28;8868;-76
2023/04/26 13:20:11;;;;;;;;;3.50;3.50;;;;;;;;5053010;28;9569;-74
2023/04/26 13:22:41;;;;;;;;;4.25;4.00;;;;;;;;5065818;28;8853;-76
2023/04/26 13:25:09;;;;;;;;;4.25;4.25;;;;;;;;5063062;28;8881;-74
2023/04/26 13:27:37;;;;;;;;;5.25;5.25;;;;;;;;5068683;28;8858;-76
2023/04/26 13:30:06;;;;;;;;;3.50;3.00;;;;;;;;5068434;28;8846;-76
2023/04/26 13:32:33;;;;;;;;;5.50;4.00;;;;;;;;5069480;28;8862;-83
2023/04/26 13:35:00;;;;;;;;;4.50;4.00;;;;;;;;5068844;28;8863;-73
2023/04/26 13:37:28;;;;;;;;;5.50;5.00;;;;;;;;5068381;28;8862;-75
2023/04/26 13:39:55;;;;;;;;;3.50;3.50;;;;;;;;5068289;28;8881;-77
2023/04/26 13:42:22;;;;;;;;;5.50;5.00;;;;;;;;5067898;28;8965;-76
2023/04/26 13:44:51;;;;;;;;;7.00;5.25;;;;;;;;5068689;28;8981;-76
2023/04/26 13:47:18;;;;;;;;;5.00;5.00;;;;;;;;5044451;28;9674;-77
2023/04/26 13:49:45;;;;;;;;;5.25;5.25;;;;;;;;5066902;28;8842;-75
2023/04/26 13:52:12;;;;;;;;;3.25;3.00;;;;;;;;5068698;28;8873;-74
2023/04/26 13:54:39;;;;;;;;;5.25;4.50;;;;;;;;5049382;28;8872;-81
2023/04/26 13:57:07;;;;;;;;;4.00;4.00;;;;;;;;5051695;28;8854;-73
2023/04/26 13:59:34;;;;;;;;;5.00;4.50;;;;;;;;5056484;28;8883;-75
2023/04/26 14:02:02;;;;;;;;;5.00;4.50;;;;;;;;5048602;28;8825;-75
2023/04/26 14:04:30;;;;;;;;;3.50;3.50;;;;;;;;5049644;28;8944;-74
2023/04/26 14:06:57;;;;;;;;;5.75;4.00;;;;;;;;5049808;28;8917;-73
2023/04/26 14:09:24;;;;;;;;;3.75;3.75;;;;;;;;5049803;28;8857;-76
2023/04/26 14:11:51;;;;;;;;;5.75;5.75;;;;;;;;5050455;28;9601;-76
2023/04/26 14:14:18;;;;;;;;;7.25;4.75;;;;;;;;5050130;28;8861;-72
2023/04/26 14:16:46;;;;;;;;;5.25;5.25;;;;;;;;5050977;28;8971;-74
2023/04/26 14:19:14;;;;;;;;;5.75;5.00;;;;;;;;5049024;28;8845;-74
2023/04/26 14:21:41;;;;;;;;;5.50;5.50;;;;;;;;5049409;28;8857;-74
2023/04/26 14:24:10;;;;;;;;;4.00;4.00;;;;;;;;5048782;28;8861;-77
2023/04/26 14:26:37;;;;;;;;;5.00;5.00;;;;;;;;5049916;28;8849;-73
2023/04/26 14:29:04;;;;;;;;;4.75;4.75;;;;;;;;5050215;28;8877;-75
2023/04/26 14:31:32;;;;;;;;;4.75;4.75;;;;;;;;5049819;28;8832;-78
2023/04/26 14:33:59;;;;;;;;;5.75;4.50;;;;;;;;5049184;28;8857;-78
2023/04/26 14:36:28;;;;;;;;;3.00;3.00;;;;;;;;5049088;28;8891;-75
2023/04/26 14:38:55;;;;;;;;;4.75;4.00;;;;;;;;5047956;28;8842;-73
2023/04/26 14:41:22;;;;;;;;;4.25;4.25;;;;;;;;5049348;28;8861;-77
2023/04/26 14:43:51;;;;;;;;;4.00;4.00;;;;;;;;5049316;28;9624;-76
2023/04/26 14:46:18;;;;;;;;;4.25;4.25;;;;;;;;5050206;28;8857;-79
2023/04/26 14:48:46;;;;;;;;;3.00;3.00;;;;;;;;5053890;28;8869;-77